Time;durP1;ratioP1;P1;durP2;ratioP2;P2;SDS_P1;SDS_P2;PMS_P1;PMS_P2;Temp;Humidity;BMP_temperature;BMP_pressure;BME280_temperature;BME280_humidity;BME280_pressure;Samples;Min_cycle;Max_cycle;Signal;HPM_P1;HPM_P2
2024/02/15 00:00:20;;;;;;;;;5.33;5.00;;;;;18.32;100.00;101206.66;2113587;27;46758;-49
2024/02/15 00:01:20;;;;;;;;;6.67;6.67;;;;;18.25;100.00;101203.34;2104507;28;46436;-51
2024/02/15 00:02:21;;;;;;;;;8.00;7.00;;;;;18.26;100.00;101213.16;2104686;28;45655;-51
2024/02/15 00:03:22;;;;;;;;;8.00;6.67;;;;;18.21;100.00;101205.31;2114125;27;46473;-51
2024/02/15 00:04:22;;;;;;;;;6.50;6.00;;;;;18.17;100.00;101213.59;2112945;27;46723;-53
2024/02/15 00:05:23;;;;;;;;;6.00;6.00;;;;;18.17;100.00;101208.22;2113439;27;46323;-52
2024/02/15 00:06:24;;;;;;;;;5.50;4.50;;;;;18.16;100.00;101212.69;2106061;27;46604;-50
2024/02/15 00:07:24;;;;;;;;;5.33;5.33;;;;;18.14;100.00;101211.03;2113268;27;46306;-51
2024/02/15 00:08:26;;;;;;;;;6.00;6.00;;;;;18.14;100.00;101213.72;2113530;27;46851;-54
2024/02/15 00:09:26;;;;;;;;;3.50;3.50;;;;;18.10;100.00;101213.00;2113320;27;46478;-53
2024/02/15 00:10:27;;;;;;;;;7.00;7.00;;;;;18.11;100.00;101217.41;2113886;27;46483;-54
2024/02/15 00:11:28;;;;;;;;;7.00;7.00;;;;;18.11;100.00;101214.72;2113531;27;46289;-52
2024/02/15 00:12:30;;;;;;;;;5.00;5.00;;;;;18.11;100.00;101205.81;2113460;27;46605;-52
2024/02/15 00:13:33;;;;;;;;;6.00;5.75;;;;;18.11;100.00;101208.50;2113590;27;47159;-51
2024/02/15 00:14:33;;;;;;;;;8.00;6.25;;;;;18.07;100.00;101207.75;2104468;28;46605;-53
2024/02/15 00:15:34;;;;;;;;;6.67;6.00;;;;;18.10;100.00;101213.00;2095783;28;46447;-53
2024/02/15 00:16:37;;;;;;;;;5.00;5.00;;;;;18.11;100.00;101211.16;2095277;28;46570;-53
2024/02/15 00:17:38;;;;;;;;;6.25;6.25;;;;;18.09;100.00;101207.69;2103424;27;46435;-54
2024/02/15 00:18:39;;;;;;;;;6.00;6.00;;;;;18.08;100.00;101208.63;2113481;27;46216;-51
2024/02/15 00:19:41;;;;;;;;;6.50;6.00;;;;;18.05;100.00;101203.41;2116821;27;46621;-53
2024/02/15 00:20:43;;;;;;;;;6.50;5.75;;;;;18.06;100.00;101208.72;2113389;27;46770;-54
2024/02/15 00:21:44;;;;;;;;;6.75;5.50;;;;;18.11;100.00;101206.66;2113136;27;46684;-53
2024/02/15 00:22:44;;;;;;;;;4.00;4.00;;;;;18.12;100.00;101210.22;2113523;27;46835;-50
2024/02/15 00:23:45;;;;;;;;;6.33;6.33;;;;;18.11;100.00;101203.97;2110921;27;46477;-55
2024/02/15 00:24:46;;;;;;;;;7.33;6.00;;;;;18.11;100.00;101197.75;2113738;27;46617;-53
2024/02/15 00:25:46;;;;;;;;;6.50;6.25;;;;;18.09;100.00;101199.63;2113286;27;46674;-53
2024/02/15 00:26:47;;;;;;;;;5.33;5.33;;;;;18.11;100.00;101195.06;2111696;27;46223;-53
2024/02/15 00:27:48;;;;;;;;;7.75;6.00;;;;;18.12;100.00;101199.47;2108560;27;47784;-53
2024/02/15 00:28:49;;;;;;;;;6.00;6.00;;;;;18.10;100.00;101194.19;2113106;27;46440;-53
2024/02/15 00:29:49;;;;;;;;;6.00;6.00;;;;;18.11;100.00;101195.06;2113291;27;46267;-52
2024/02/15 00:30:50;;;;;;;;;8.33;5.00;;;;;18.10;100.00;101198.69;2113270;27;46554;-50
2024/02/15 00:31:50;;;;;;;;;4.33;4.33;;;;;18.06;100.00;101195.28;2112995;27;46648;-50
2024/02/15 00:32:51;;;;;;;;;5.00;4.00;;;;;18.11;100.00;101200.44;2113163;27;46463;-54
2024/02/15 00:33:51;;;;;;;;;5.33;5.33;;;;;18.10;100.00;101188.81;2113749;27;46743;-53
2024/02/15 00:34:51;;;;;;;;;6.67;5.00;;;;;18.10;100.00;101193.31;2113165;27;46642;-53
2024/02/15 00:35:52;;;;;;;;;6.67;6.00;;;;;18.09;100.00;101191.56;2113289;27;46267;-53
2024/02/15 00:36:52;;;;;;;;;8.00;5.33;;;;;18.09;100.00;101189.75;2113350;27;46646;-54
2024/02/15 00:37:53;;;;;;;;;6.25;3.50;;;;;18.08;100.00;101188.00;2113257;27;46316;-53
2024/02/15 00:38:53;;;;;;;;;4.00;4.00;;;;;18.06;100.00;101189.91;2113415;27;46708;-52
2024/02/15 00:39:54;;;;;;;;;5.33;4.33;;;;;18.06;100.00;101186.34;2112970;27;46205;-53
2024/02/15 00:40:54;;;;;;;;;5.00;5.00;;;;;18.06;100.00;101183.66;2112140;27;46432;-52
2024/02/15 00:41:55;;;;;;;;;5.00;5.00;;;;;18.07;100.00;101180.03;2113313;27;46517;-53
2024/02/15 00:42:55;;;;;;;;;7.33;7.33;;;;;18.08;100.00;101185.34;2114294;27;46527;-49
2024/02/15 00:43:56;;;;;;;;;4.33;4.33;;;;;18.07;100.00;101183.59;2109615;27;46028;-51
2024/02/15 00:44:56;;;;;;;;;5.00;5.00;;;;;18.08;100.00;101179.09;2102952;28;46197;-53
2024/02/15 00:45:56;;;;;;;;;5.00;5.00;;;;;18.05;100.00;101177.41;2091044;28;46293;-52
2024/02/15 00:46:57;;;;;;;;;5.33;5.33;;;;;18.07;100.00;101174.66;2105750;28;46237;-53
2024/02/15 00:47:57;;;;;;;;;6.67;5.33;;;;;18.06;100.00;101175.59;2114500;27;46139;-52
2024/02/15 00:48:59;;;;;;;;;6.33;6.33;;;;;18.05;100.00;101168.50;2114818;27;46619;-52
2024/02/15 00:50:00;;;;;;;;;6.50;5.75;;;;;18.05;100.00;101171.19;2114407;27;46727;-51
2024/02/15 00:51:00;;;;;;;;;8.33;7.33;;;;;18.05;100.00;101171.19;2114607;27;46717;-50
2024/02/15 00:52:00;;;;;;;;;4.00;4.00;;;;;18.04;100.00;101170.31;2114605;27;46912;-50
2024/02/15 00:53:01;;;;;;;;;4.00;4.00;;;;;18.04;100.00;101162.25;2114316;27;46813;-50
2024/02/15 00:54:02;;;;;;;;;6.00;5.00;;;;;18.05;100.00;101163.13;2114251;27;46333;-52
2024/02/15 00:55:03;;;;;;;;;5.75;5.25;;;;;18.03;100.00;101171.22;2112839;27;46058;-51
2024/02/15 00:56:04;;;;;;;;;6.00;5.00;;;;;18.03;100.00;101165.84;2114687;27;46196;-51
2024/02/15 00:57:04;;;;;;;;;7.00;6.00;;;;;18.02;100.00;101163.22;2084012;28;46195;-52
2024/02/15 00:58:04;;;;;;;;;6.33;6.33;;;;;18.02;100.00;101161.41;2090691;28;46641;-52
2024/02/15 00:59:05;;;;;;;;;6.00;6.00;;;;;18.03;100.00;101151.53;2116325;27;46403;-53
2024/02/15 01:00:09;;;;;;;;;6.33;5.00;;;;;18.01;100.00;101150.75;2117426;27;46322;-52
2024/02/15 01:01:10;;;;;;;;;5.00;5.00;;;;;18.03;100.00;101151.53;2117508;27;46752;-49
2024/02/15 01:02:12;;;;;;;;;6.75;6.75;;;;;18.03;100.00;101149.72;2117242;27;46691;-52
2024/02/15 01:03:12;;;;;;;;;4.50;4.50;;;;;18.02;100.00;101155.19;2115399;27;46634;-51
2024/02/15 01:04:13;;;;;;;;;5.00;5.00;;;;;18.04;100.00;101153.28;2117899;27;46325;-53
2024/02/15 01:05:15;;;;;;;;;6.00;6.00;;;;;18.05;100.00;101147.88;2119204;27;46598;-53
2024/02/15 01:06:15;;;;;;;;;5.75;4.00;;;;;18.06;100.00;101148.75;2115042;27;46667;-54
2024/02/15 01:07:16;;;;;;;;;4.00;4.00;;;;;18.06;100.00;101148.75;2114719;27;46682;-53
2024/02/15 01:08:16;;;;;;;;;4.33;4.00;;;;;18.07;100.00;101148.66;2114746;27;46497;-53
2024/02/15 01:09:16;;;;;;;;;4.33;4.33;;;;;18.09;100.00;101144.09;2114781;27;45457;-51
2024/02/15 01:10:17;;;;;;;;;3.00;3.00;;;;;18.10;100.00;101143.16;2114230;27;46290;-53
2024/02/15 01:11:17;;;;;;;;;3.00;2.67;;;;;18.10;100.00;101144.97;2114980;27;46605;-52
2024/02/15 01:12:18;;;;;;;;;3.67;3.67;;;;;18.07;100.00;101143.31;2114522;27;46178;-51
2024/02/15 01:13:18;;;;;;;;;4.00;3.00;;;;;18.08;100.00;101141.50;2114363;27;46133;-52
2024/02/15 01:14:18;;;;;;;;;3.33;3.33;;;;;18.04;100.00;101147.91;2114528;27;45056;-53
2024/02/15 01:15:20;;;;;;;;;3.00;3.00;;;;;18.08;100.00;101144.16;2114533;27;46077;-50
2024/02/15 01:16:24;;;;;;;;;3.25;3.25;;;;;18.11;100.00;101138.66;2105219;28;46472;-49
2024/02/15 01:17:25;;;;;;;;;5.25;4.25;;;;;18.08;100.00;101142.34;2105917;27;46929;-55
2024/02/15 01:18:26;;;;;;;;;4.67;4.67;;;;;18.05;100.00;101134.44;2114276;27;46796;-51
2024/02/15 01:19:27;;;;;;;;;6.50;5.00;;;;;18.05;100.00;101136.25;2115225;27;46249;-53
2024/02/15 01:20:27;;;;;;;;;4.33;3.33;;;;;18.03;100.00;101130.94;2106223;28;46835;-54
2024/02/15 01:21:28;;;;;;;;;6.00;4.00;;;;;18.03;100.00;101130.94;2110008;27;46417;-53
2024/02/15 01:22:28;;;;;;;;;5.00;5.00;;;;;18.05;100.00;101125.53;2114739;27;46700;-51
2024/02/15 01:23:28;;;;;;;;;3.33;3.33;;;;;18.02;100.00;101131.88;2114063;27;46784;-51
2024/02/15 01:24:30;;;;;;;;;4.00;4.00;;;;;18.06;100.00;101127.25;2114577;27;46293;-49
2024/02/15 01:25:30;;;;;;;;;5.00;5.00;;;;;18.06;100.00;101128.13;2114570;27;47062;-52
2024/02/15 01:26:30;;;;;;;;;3.67;3.67;;;;;18.05;100.00;101126.38;2111584;27;46887;-54
2024/02/15 01:27:31;;;;;;;;;4.00;4.00;;;;;18.09;100.00;101130.66;2114602;27;46329;-52
2024/02/15 01:28:32;;;;;;;;;6.00;6.00;;;;;18.10;100.00;101127.03;2114422;27;47013;-52
2024/02/15 01:29:32;;;;;;;;;5.00;5.00;;;;;18.10;100.00;101129.72;2114491;27;46428;-53
2024/02/15 01:30:32;;;;;;;;;5.00;5.00;;;;;18.12;100.00;101118.91;2114684;27;46811;-53
2024/02/15 01:31:33;;;;;;;;;6.00;6.00;;;;;18.10;100.00;101121.66;2113035;27;46276;-55
2024/02/15 01:32:33;;;;;;;;;7.33;4.33;;;;;18.11;100.00;101122.53;2114863;27;46359;-50
2024/02/15 01:33:33;;;;;;;;;4.67;4.67;;;;;18.10;100.00;101131.53;2114624;27;46160;-50
2024/02/15 01:34:34;;;;;;;;;5.67;5.67;;;;;18.08;100.00;101128.06;2114241;27;46419;-54
2024/02/15 01:35:35;;;;;;;;;5.33;5.00;;;;;18.08;100.00;101131.63;2115115;27;46311;-52
2024/02/15 01:36:35;;;;;;;;;4.25;4.25;;;;;18.07;100.00;101132.56;2113924;27;46494;-52
2024/02/15 01:37:36;;;;;;;;;6.00;5.67;;;;;18.09;100.00;101137.84;2114358;27;46418;-51
2024/02/15 01:38:37;;;;;;;;;4.00;3.50;;;;;18.08;100.00;101130.75;2079093;28;46277;-52
2024/02/15 01:39:37;;;;;;;;;4.33;4.33;;;;;18.06;100.00;101129.94;2077136;28;46290;-52
2024/02/15 01:40:37;;;;;;;;;4.00;4.00;;;;;18.07;100.00;101137.06;2114137;27;46481;-53
2024/02/15 01:41:38;;;;;;;;;6.33;6.00;;;;;18.08;100.00;101123.56;2108245;27;46296;-53
2024/02/15 01:42:39;;;;;;;;;7.00;5.00;;;;;18.07;100.00;101126.31;2109742;27;46684;-50
2024/02/15 01:43:49;;;;;;;;;6.25;5.25;;;;;18.07;100.00;101129.88;2105191;28;46667;-52
2024/02/15 01:44:50;;;;;;;;;4.75;4.00;;;;;18.03;100.00;101127.38;2106957;27;46879;-51
2024/02/15 01:45:51;;;;;;;;;4.25;4.25;;;;;18.06;100.00;101127.25;2114215;27;46487;-51
2024/02/15 01:46:53;;;;;;;;;5.33;5.33;;;;;18.06;100.00;101121.88;2114362;27;46202;-55
2024/02/15 01:47:54;;;;;;;;;9.00;5.25;;;;;18.04;100.00;101121.06;2112154;27;46497;-51
2024/02/15 01:48:56;;;;;;;;;5.67;5.67;;;;;18.02;100.00;101126.50;2112748;27;46363;-53
2024/02/15 01:49:56;;;;;;;;;4.00;4.00;;;;;18.04;100.00;101126.44;2114812;27;45690;-51
2024/02/15 01:50:58;;;;;;;;;6.67;6.67;;;;;18.05;100.00;101129.06;2114872;27;46430;-53
2024/02/15 01:52:02;;;;;;;;;5.75;4.25;;;;;18.05;100.00;101129.06;2110941;27;45846;-52
2024/02/15 01:53:05;;;;;;;;;6.50;6.50;;;;;18.06;100.00;101128.13;2108469;27;45882;-53
2024/02/15 01:54:05;;;;;;;;;1.75;1.75;;;;;18.04;100.00;101126.44;2116456;27;46367;-53
2024/02/15 01:55:08;;;;;;;;;6.33;3.33;;;;;18.04;100.00;101127.34;2117823;27;46977;-51
2024/02/15 01:56:10;;;;;;;;;5.25;3.75;;;;;18.05;100.00;101125.53;2117122;27;46376;-52
2024/02/15 01:57:10;;;;;;;;;5.75;5.75;;;;;18.03;100.00;101125.56;2116924;27;46706;-56
2024/02/15 01:58:10;;;;;;;;;5.00;5.00;;;;;18.02;100.00;101131.00;2117391;27;46187;-56
2024/02/15 01:59:14;;;;;;;;;5.00;5.00;;;;;18.03;100.00;101122.00;2106932;27;46151;-55
2024/02/15 02:00:18;;;;;;;;;6.25;4.75;;;;;18.05;100.00;101118.34;2111982;27;46342;-54
2024/02/15 02:01:21;;;;;;;;;4.00;4.00;;;;;18.05;100.00;101123.72;2114489;27;46641;-52
2024/02/15 02:02:25;;;;;;;;;6.00;4.25;;;;;18.06;100.00;101122.75;2105197;28;46651;-54
2024/02/15 02:03:25;;;;;;;;;4.00;4.00;;;;;18.05;100.00;101131.75;2097615;28;46434;-54
2024/02/15 02:04:25;;;;;;;;;3.00;3.00;;;;;18.07;100.00;101124.50;2111956;27;46389;-54
2024/02/15 02:05:28;;;;;;;;;4.00;3.00;;;;;18.09;100.00;101113.69;2114213;27;46201;-57
2024/02/15 02:06:30;;;;;;;;;3.00;3.00;;;;;18.08;100.00;101128.06;2114423;27;46227;-52
2024/02/15 02:07:30;;;;;;;;;5.25;4.25;;;;;17.97;100.00;101120.50;2113518;27;46318;-54
2024/02/15 02:08:31;;;;;;;;;6.00;4.00;;;;;17.93;100.00;101113.53;2114278;27;46594;-52
2024/02/15 02:09:31;;;;;;;;;4.67;4.67;;;;;17.94;100.00;101121.50;2113895;27;46181;-50
2024/02/15 02:10:32;;;;;;;;;4.33;4.33;;;;;17.90;100.00;101116.31;2103773;28;46587;-52
2024/02/15 02:11:33;;;;;;;;;3.25;3.25;;;;;17.90;100.00;101117.19;2105232;27;46108;-53
2024/02/15 02:12:33;;;;;;;;;3.00;3.00;;;;;17.88;100.00;101113.72;2114149;27;46181;-52
2024/02/15 02:13:34;;;;;;;;;3.00;3.00;;;;;17.89;100.00;101120.81;2114072;27;46259;-49
2024/02/15 02:14:35;;;;;;;;;6.00;5.00;;;;;17.86;100.00;101112.06;2114057;27;46241;-54
2024/02/15 02:15:37;;;;;;;;;3.00;3.00;;;;;17.88;100.00;101115.53;2114409;27;46240;-52
2024/02/15 02:16:39;;;;;;;;;3.25;3.25;;;;;17.85;100.00;101105.81;2114439;27;47091;-51
2024/02/15 02:17:40;;;;;;;;;4.75;4.25;;;;;17.83;100.00;101115.75;2114016;27;47031;-49
2024/02/15 02:18:41;;;;;;;;;4.75;4.50;;;;;17.83;100.00;101109.50;2113728;27;47116;-52
2024/02/15 02:19:42;;;;;;;;;4.75;4.75;;;;;17.93;100.00;101108.16;2118177;27;46681;-52
2024/02/15 02:20:42;;;;;;;;;4.75;4.00;;;;;17.98;100.00;101106.13;2115023;27;48133;-53
2024/02/15 02:21:44;;;;;;;;;3.33;3.33;;;;;18.01;100.00;101107.78;2114334;27;46699;-53
2024/02/15 02:22:48;;;;;;;;;5.75;4.75;;;;;18.02;100.00;101096.09;2114088;27;46682;-51
2024/02/15 02:23:52;;;;;;;;;6.75;5.25;;;;;18.02;100.00;101098.78;2114016;27;46375;-53
2024/02/15 02:25:03;;;;;;;;;4.25;4.25;;;;;17.98;100.00;101097.19;2114165;27;45776;-53
2024/02/15 02:26:03;;;;;;;;;4.50;4.50;;;;;17.98;100.00;101102.56;2105905;28;46574;-54
2024/02/15 02:27:07;;;;;;;;;4.00;4.00;;;;;17.97;100.00;101101.69;2110439;27;48141;-54
2024/02/15 02:28:08;;;;;;;;;4.00;4.00;;;;;17.97;100.00;101099.00;2112673;27;49232;-51
2024/02/15 02:29:09;;;;;;;;;5.75;5.75;;;;;18.00;100.00;101098.84;2114281;27;46414;-52
2024/02/15 02:30:19;;;;;;;;;5.33;5.33;;;;;18.04;100.00;101089.75;2113967;27;46717;-53
2024/02/15 02:31:21;;;;;;;;;4.00;4.00;;;;;17.99;100.00;101090.88;2113991;27;46336;-51
2024/02/15 02:32:22;;;;;;;;;4.00;4.00;;;;;17.98;100.00;101089.13;2113953;27;46755;-52
2024/02/15 02:33:24;;;;;;;;;3.00;3.00;;;;;17.97;100.00;101085.56;2113912;27;46417;-51
2024/02/15 02:34:25;;;;;;;;;5.00;3.75;;;;;17.97;100.00;101087.41;2114191;27;46750;-52
2024/02/15 02:35:26;;;;;;;;;5.33;5.33;;;;;17.96;100.00;101088.34;2114118;27;45810;-52
2024/02/15 02:36:29;;;;;;;;;6.25;6.00;;;;;17.95;100.00;101079.41;2114419;27;46587;-51
2024/02/15 02:37:29;;;;;;;;;4.00;4.00;;;;;17.95;100.00;101079.41;2114375;27;46715;-52
2024/02/15 02:38:29;;;;;;;;;3.67;3.67;;;;;17.97;100.00;101077.53;2113785;27;46415;-50
2024/02/15 02:39:31;;;;;;;;;3.67;3.67;;;;;17.95;100.00;101076.72;2113822;27;46571;-53
2024/02/15 02:40:31;;;;;;;;;5.00;4.00;;;;;17.96;100.00;101072.22;2105654;28;46170;-53
2024/02/15 02:41:32;;;;;;;;;3.00;3.00;;;;;17.96;100.00;101074.91;2109799;27;46305;-51
2024/02/15 02:42:32;;;;;;;;;4.67;4.00;;;;;17.96;100.00;101070.41;2114237;27;46281;-51
2024/02/15 02:43:32;;;;;;;;;5.33;5.00;;;;;17.93;100.00;101075.94;2113905;27;46206;-52
2024/02/15 02:44:33;;;;;;;;;5.67;4.00;;;;;17.94;100.00;101073.19;2113986;27;46831;-51
2024/02/15 02:45:33;;;;;;;;;3.00;3.00;;;;;17.93;100.00;101075.94;2087162;28;47067;-50
2024/02/15 02:46:33;;;;;;;;;5.33;4.00;;;;;17.92;100.00;101069.69;2092317;28;46346;-51
2024/02/15 02:47:33;;;;;;;;;3.00;3.00;;;;;17.92;100.00;101068.81;2113889;27;45563;-53
2024/02/15 02:48:34;;;;;;;;;1.67;1.67;;;;;17.92;100.00;101066.13;2087291;28;45496;-53
2024/02/15 02:49:37;;;;;;;;;6.00;4.33;;;;;17.93;100.00;101065.19;2086543;28;46755;-50
2024/02/15 02:50:38;;;;;;;;;4.75;4.75;;;;;17.91;100.00;101059.91;2114094;27;46508;-50
2024/02/15 02:51:38;;;;;;;;;4.33;4.33;;;;;17.93;100.00;101062.50;2113737;27;46730;-52
2024/02/15 02:52:39;;;;;;;;;5.33;4.00;;;;;17.93;100.00;101066.06;2104935;28;46408;-51
2024/02/15 02:53:39;;;;;;;;;3.33;3.33;;;;;17.93;100.00;101059.81;2104827;28;45935;-50
2024/02/15 02:54:39;;;;;;;;;3.00;3.00;;;;;17.92;100.00;101058.09;2113909;27;46480;-53
2024/02/15 02:55:41;;;;;;;;;2.33;2.33;;;;;17.92;100.00;101058.94;2113286;27;45962;-53
2024/02/15 02:56:43;;;;;;;;;4.50;4.50;;;;;17.89;100.00;101056.38;2105577;28;46937;-54
2024/02/15 02:57:43;;;;;;;;;2.50;2.50;;;;;17.92;100.00;101055.41;2109380;27;45520;-53
2024/02/15 02:58:44;;;;;;;;;2.67;2.67;;;;;17.92;100.00;101056.28;2114068;27;46483;-53
2024/02/15 02:59:44;;;;;;;;;3.00;3.00;;;;;17.91;100.00;101051.84;2113866;27;46746;-54
2024/02/15 03:00:46;;;;;;;;;5.00;3.33;;;;;17.90;100.00;101058.13;2112439;27;46513;-53
2024/02/15 03:01:46;;;;;;;;;2.25;2.00;;;;;17.92;100.00;101053.59;2114433;27;46580;-52
2024/02/15 03:02:47;;;;;;;;;6.33;5.00;;;;;17.90;100.00;101049.19;2113488;27;46772;-54
2024/02/15 03:03:47;;;;;;;;;2.67;2.67;;;;;17.90;100.00;101042.00;2114152;27;45826;-52
2024/02/15 03:04:48;;;;;;;;;3.33;3.33;;;;;17.91;100.00;101045.56;2113952;27;46281;-49
2024/02/15 03:05:48;;;;;;;;;3.00;3.00;;;;;17.92;100.00;101047.34;2113016;27;46109;-53
2024/02/15 03:06:49;;;;;;;;;4.00;4.00;;;;;17.92;100.00;101050.03;2113987;27;46037;-53
2024/02/15 03:07:51;;;;;;;;;3.75;3.75;;;;;17.91;100.00;101042.88;2113824;27;46761;-54
2024/02/15 03:08:54;;;;;;;;;3.25;2.00;;;;;17.92;100.00;101048.22;2113602;27;46637;-53
2024/02/15 03:09:55;;;;;;;;;3.50;3.50;;;;;17.92;100.00;101040.16;2114039;27;45778;-53
2024/02/15 03:10:55;;;;;;;;;3.00;3.00;;;;;17.92;100.00;101047.34;2114004;27;46843;-53
2024/02/15 03:11:56;;;;;;;;;4.00;3.33;;;;;17.91;100.00;101046.47;2113920;27;46661;-52
2024/02/15 03:12:57;;;;;;;;;5.00;4.00;;;;;17.90;100.00;101051.88;2105575;28;46945;-51
2024/02/15 03:13:59;;;;;;;;;3.00;3.00;;;;;17.89;100.00;101045.66;2110028;27;46431;-51
2024/02/15 03:14:59;;;;;;;;;5.75;3.25;;;;;17.89;100.00;101042.09;2079020;28;46566;-49
2024/02/15 03:16:00;;;;;;;;;3.00;3.00;;;;;17.92;100.00;101041.97;2079576;27;46322;-50
2024/02/15 03:17:03;;;;;;;;;2.67;2.67;;;;;17.92;100.00;101034.78;2113439;27;46443;-50
2024/02/15 03:18:09;;;;;;;;;3.25;3.25;;;;;17.94;100.00;101032.03;2113359;27;46452;-49
2024/02/15 03:19:11;;;;;;;;;3.00;3.00;;;;;17.93;100.00;101041.03;2113220;27;46341;-50
2024/02/15 03:20:20;;;;;;;;;3.00;3.00;;;;;17.94;100.00;101032.03;2092687;28;46752;-51
2024/02/15 03:21:20;;;;;;;;;2.50;2.00;;;;;17.96;100.00;101042.69;2097773;27;45645;-50
2024/02/15 03:22:21;;;;;;;;;3.00;3.00;;;;;17.96;100.00;101042.69;2115933;27;46564;-49
2024/02/15 03:23:21;;;;;;;;;2.33;2.00;;;;;17.95;100.00;101033.75;2098590;28;47049;-52
2024/02/15 03:24:22;;;;;;;;;4.67;4.67;;;;;17.97;100.00;101039.06;2101991;28;46781;-52
2024/02/15 03:25:26;;;;;;;;;5.33;4.00;;;;;17.95;100.00;101031.09;2116997;27;46107;-51
2024/02/15 03:26:36;;;;;;;;;3.00;3.00;;;;;17.98;100.00;101035.44;2118133;27;46905;-53
2024/02/15 03:27:40;;;;;;;;;3.50;2.75;;;;;17.95;100.00;101028.41;2105594;28;46624;-53
2024/02/15 03:28:40;;;;;;;;;6.50;4.50;;;;;17.92;100.00;101024.03;2110129;27;46609;-52
2024/02/15 03:29:40;;;;;;;;;4.00;4.00;;;;;17.94;100.00;101027.53;2113802;27;46265;-51
2024/02/15 03:30:42;;;;;;;;;4.33;3.00;;;;;17.93;100.00;101027.59;2113728;27;46869;-51
2024/02/15 03:31:43;;;;;;;;;5.50;4.00;;;;;17.92;100.00;101023.19;2113652;27;46583;-49
2024/02/15 03:32:43;;;;;;;;;3.00;2.33;;;;;17.91;100.00;101026.78;2113795;27;46563;-54
2024/02/15 03:33:43;;;;;;;;;2.00;2.00;;;;;17.82;100.00;101028.09;2113426;27;46800;-53
2024/02/15 03:34:45;;;;;;;;;3.00;3.00;;;;;17.80;100.00;101015.69;2113344;27;46154;-51
2024/02/15 03:35:46;;;;;;;;;4.00;3.75;;;;;17.87;100.00;101026.06;2113872;27;46288;-52
2024/02/15 03:36:47;;;;;;;;;3.00;3.00;;;;;17.92;100.00;101021.34;2112519;27;47084;-52
2024/02/15 03:37:52;;;;;;;;;3.00;3.00;;;;;17.94;100.00;101015.91;2113714;27;46781;-53
2024/02/15 03:38:53;;;;;;;;;2.00;2.00;;;;;17.92;100.00;101015.13;2105100;28;47153;-53
2024/02/15 03:39:54;;;;;;;;;4.25;4.00;;;;;17.78;100.00;101018.44;2109958;27;46585;-53
2024/02/15 03:40:55;;;;;;;;;4.33;4.33;;;;;17.83;100.00;101020.91;2113822;27;46418;-50
2024/02/15 03:41:56;;;;;;;;;5.25;5.25;;;;;17.69;100.00;101031.44;2113392;27;46717;-52
2024/02/15 03:42:56;;;;;;;;;3.00;3.00;;;;;17.79;100.00;101025.56;2113317;27;46209;-50
2024/02/15 03:43:59;;;;;;;;;4.00;4.00;;;;;17.83;100.00;101024.47;2113613;27;46142;-52
2024/02/15 03:45:00;;;;;;;;;4.00;4.00;;;;;17.88;100.00;101032.28;2113573;27;46724;-51
2024/02/15 03:46:00;;;;;;;;;3.00;3.00;;;;;17.85;100.00;101027.94;2113499;27;46545;-49
2024/02/15 03:47:01;;;;;;;;;3.00;3.00;;;;;17.84;100.00;101020.84;2113702;27;46321;-53
2024/02/15 03:48:05;;;;;;;;;3.33;3.33;;;;;17.80;100.00;101018.38;2113567;27;46687;-52
2024/02/15 03:49:06;;;;;;;;;2.50;2.50;;;;;17.82;100.00;101020.03;2113566;27;46739;-53
2024/02/15 03:50:10;;;;;;;;;1.00;1.00;;;;;17.81;100.00;101018.31;2113538;27;46960;-53
2024/02/15 03:51:10;;;;;;;;;4.25;4.25;;;;;17.83;100.00;101010.19;2113440;27;46377;-50
2024/02/15 03:52:11;;;;;;;;;3.33;3.33;;;;;17.80;100.00;101015.69;2112266;27;46191;-51
2024/02/15 03:53:11;;;;;;;;;6.33;4.00;;;;;17.93;100.00;101016.88;2113797;27;46777;-53
2024/02/15 03:54:12;;;;;;;;;4.33;4.33;;;;;17.96;100.00;101014.03;2113136;27;46589;-51
2024/02/15 03:55:12;;;;;;;;;3.00;3.00;;;;;17.94;100.00;101011.41;2113576;27;46588;-51
2024/02/15 03:56:13;;;;;;;;;3.00;3.00;;;;;17.91;100.00;101006.19;2113552;27;45709;-53
2024/02/15 03:57:13;;;;;;;;;3.67;3.00;;;;;17.85;100.00;101005.59;2113592;27;46800;-52
2024/02/15 03:58:14;;;;;;;;;3.33;3.33;;;;;17.84;100.00;101006.53;2104587;28;46778;-50
2024/02/15 03:59:15;;;;;;;;;3.25;3.25;;;;;17.84;100.00;101006.53;2104406;27;46363;-55
2024/02/15 04:00:20;;;;;;;;;3.00;3.00;;;;;17.85;100.00;100997.53;2113483;27;46358;-52
2024/02/15 04:01:20;;;;;;;;;3.00;3.00;;;;;17.83;100.00;101003.00;2113252;27;47054;-49
2024/02/15 04:02:23;;;;;;;;;4.67;3.33;;;;;17.82;100.00;101000.38;2113111;27;46655;-52
2024/02/15 04:03:23;;;;;;;;;5.00;3.00;;;;;17.83;100.00;101002.13;2114131;27;46464;-52
2024/02/15 04:04:24;;;;;;;;;2.67;2.67;;;;;17.82;100.00;100995.00;2113494;27;46474;-51
2024/02/15 04:05:24;;;;;;;;;3.33;3.33;;;;;17.80;100.00;100997.78;2104473;28;46666;-53
2024/02/15 04:06:25;;;;;;;;;3.33;2.00;;;;;17.80;100.00;101000.47;2103310;28;46187;-53
2024/02/15 04:07:26;;;;;;;;;2.67;2.33;;;;;17.81;100.00;100999.50;2113681;27;46335;-53
2024/02/15 04:08:27;;;;;;;;;3.00;3.00;;;;;17.74;100.00;100995.38;2113600;27;45394;-52
2024/02/15 04:09:27;;;;;;;;;6.00;4.00;;;;;17.77;100.00;101002.41;2094991;28;46452;-52
2024/02/15 04:10:27;;;;;;;;;3.00;3.00;;;;;17.79;100.00;100996.03;2094551;28;46637;-55
2024/02/15 04:11:27;;;;;;;;;3.00;3.00;;;;;17.80;100.00;100997.78;2113345;27;46796;-51
2024/02/15 04:12:28;;;;;;;;;2.00;2.00;;;;;17.81;100.00;100993.28;2113259;27;46535;-52
2024/02/15 04:13:28;;;;;;;;;3.33;3.33;;;;;17.82;100.00;100995.88;2113431;27;46675;-52
2024/02/15 04:14:28;;;;;;;;;4.00;3.00;;;;;17.81;100.00;101001.31;2113344;27;46578;-54
2024/02/15 04:15:29;;;;;;;;;1.67;1.67;;;;;17.78;100.00;100994.25;2113563;27;46859;-53
2024/02/15 04:16:31;;;;;;;;;6.00;5.00;;;;;17.80;100.00;101003.16;2113465;27;46699;-52
2024/02/15 04:17:34;;;;;;;;;3.00;3.00;;;;;17.81;100.00;100985.22;2112469;27;46424;-52
2024/02/15 04:18:35;;;;;;;;;2.25;2.25;;;;;17.81;100.00;100993.28;2113930;27;46614;-48
2024/02/15 04:19:36;;;;;;;;;2.33;2.33;;;;;17.82;100.00;100992.34;2095410;28;47130;-49
2024/02/15 04:20:37;;;;;;;;;3.00;2.25;;;;;17.83;100.00;100991.38;2095372;27;46474;-49
2024/02/15 04:21:38;;;;;;;;;4.00;4.00;;;;;17.80;100.00;100992.41;2118697;27;46308;-52
2024/02/15 04:22:42;;;;;;;;;3.75;2.00;;;;;17.80;100.00;100991.53;2110223;27;46920;-50
2024/02/15 04:23:43;;;;;;;;;4.50;4.50;;;;;17.80;100.00;100995.09;2117056;27;46689;-50
2024/02/15 04:24:45;;;;;;;;;3.00;3.00;;;;;17.79;100.00;100993.34;2114836;27;46336;-54
2024/02/15 04:25:50;;;;;;;;;2.50;2.50;;;;;17.82;100.00;100990.50;2115657;27;46592;-52
2024/02/15 04:26:51;;;;;;;;;3.25;3.25;;;;;17.83;100.00;100992.25;2116165;27;46473;-52
2024/02/15 04:27:51;;;;;;;;;4.33;3.00;;;;;17.84;100.00;100987.75;2116805;27;45906;-51
2024/02/15 04:28:55;;;;;;;;;4.67;4.67;;;;;17.85;100.00;100992.19;2115009;27;46397;-48
2024/02/15 04:29:56;;;;;;;;;2.25;2.25;;;;;17.83;100.00;100989.56;2116281;27;46914;-54
2024/02/15 04:30:56;;;;;;;;;2.33;1.33;;;;;17.84;100.00;100991.31;2110952;27;46326;-51
2024/02/15 04:31:57;;;;;;;;;5.00;4.00;;;;;17.83;100.00;100991.38;2113154;27;46129;-51
2024/02/15 04:32:58;;;;;;;;;2.25;2.25;;;;;17.83;100.00;100986.88;2113420;27;46305;-51
2024/02/15 04:33:58;;;;;;;;;5.33;4.33;;;;;17.83;100.00;100986.88;2113180;27;46481;-51
2024/02/15 04:35:01;;;;;;;;;1.00;1.00;;;;;17.83;100.00;100986.88;2113190;27;46609;-50
2024/02/15 04:36:04;;;;;;;;;3.50;3.50;;;;;17.82;100.00;100977.09;2113579;27;46635;-51
2024/02/15 04:37:08;;;;;;;;;4.50;3.75;;;;;17.84;100.00;100990.44;2111778;27;46703;-52
2024/02/15 04:38:09;;;;;;;;;3.00;3.00;;;;;17.83;100.00;100986.00;2086786;28;46895;-48
2024/02/15 04:39:12;;;;;;;;;3.33;2.33;;;;;17.82;100.00;100979.78;2088592;27;45895;-53
2024/02/15 04:40:13;;;;;;;;;2.00;1.75;;;;;17.81;100.00;100980.72;2113153;27;46899;-49
2024/02/15 04:41:14;;;;;;;;;2.25;2.25;;;;;17.80;100.00;100988.84;2113203;27;46616;-52